Milano Linate Airport

LIML · Lombardy, 意大利

METAR的历史 LIML · Milano Linate Airport

下面你可以看到过去几天的METARs。 选择年份以浏览从2007年开始的旧METAR。

2022年12月8日

时间 代码 天气 温度 能见度 天花板 METAR/SPECI
05:50
I
3 °C 3,5 km 6.000 ft Var Var 2 kt METAR LIML 080450Z VRB02KT 3500 BR FEW030 BKN060 03/03 Q1012 NOSIG
05:20
I
3 °C 3 km 6.000 ft 240° 240° 3 kt METAR LIML 080420Z 24003KT 3000 BR FEW003 BKN060 03/03 Q1012 NOSIG
04:50
I
3 °C 3,5 km 6.000 ft 230° 230° 4 kt METAR LIML 080350Z 23004KT 3500 BR FEW003 BKN060 03/03 Q1012 NOSIG
04:20
I
3 °C 3,5 km 6.000 ft 210° 210° 2 kt METAR LIML 080320Z 21002KT 3500 BR FEW030 BKN060 03/03 Q1012 NOSIG
03:50
I
3 °C 3 km 6.000 ft 290° 290° 1 kt METAR LIML 080250Z 29001KT 3000 BR SCT030 BKN060 03/03 Q1012 NOSIG
03:20
I
3 °C 3 km 6.000 ft 250° 250° 3 kt METAR LIML 080220Z 25003KT 3000 BR SCT030 BKN060 03/03 Q1012 NOSIG
02:50
L
3 °C 2 km 400 ft 170° 170° 2 kt METAR LIML 080150Z 17002KT 2000 BR BKN004 03/03 Q1013 NOSIG
02:20
I
3 °C 2 km 6.000 ft 180° 180° 1 kt METAR LIML 080120Z 18001KT 2000 BR SCT030 BKN060 03/03 Q1013 NOSIG
01:50
I
3 °C 1,8 km 6.000 ft Var Var 1 kt METAR LIML 080050Z VRB01KT 1800 BR BKN060 03/03 Q1012 NOSIG
01:20
I
3 °C 1,6 km - Var Var 1 kt METAR LIML 080020Z VRB01KT 1600 BR SCT003 SCT060 03/03 Q1013 NOSIG
00:50
L
3 °C 1,6 km 200 ft 250° 250° 3 kt METAR LIML 072350Z 25003KT 220V280 1600 BR BKN002 03/03 Q1013 NOSIG
00:20
L
3 °C 1,4 km 200 ft 240° 240° 2 kt METAR LIML 072320Z 24002KT 1400 R36/P2000N BR BKN002 03/03 Q1013 NOSIG

2022年12月7日

时间 代码 天气 温度 能见度 天花板 METAR/SPECI
23:50
L
3 °C 500 m 200 ft 190° 190° 2 kt METAR LIML 072250Z 19002KT 0500 R36/1100U FG OVC002 03/03 Q1013 NOSIG
23:20
L
3 °C 300 m 200 ft Var Var 1 kt METAR LIML 072220Z VRB01KT 0300 R36/0750N FG VV002 03/03 Q1013 NOSIG
22:50
L
3 °C 200 m 200 ft Var Var 2 kt METAR LIML 072150Z VRB02KT 0200 R36/0600N FG VV002 03/03 Q1013 NOSIG
22:20
L
3 °C 200 m - Var Var 2 kt METAR LIML 072120Z VRB02KT 0200 R36/0500N FG VV/// 03/03 Q1013 NOSIG
21:50
L
3 °C 200 m - Var Var 1 kt METAR LIML 072050Z VRB01KT 0200 R36/0450N FG VV/// 03/03 Q1013 NOSIG
21:20
L
3 °C 200 m - Var Var 1 kt METAR LIML 072020Z VRB01KT 0200 R36/0450N FG VV/// 03/03 Q1013 NOSIG
20:50
L
2 °C 200 m 200 ft Var Var 1 kt METAR LIML 071950Z VRB01KT 0200 R36/0400N FG VV002 02/02 Q1013 NOSIG
20:20
L
2 °C 100 m 200 ft Var Var 1 kt METAR LIML 071920Z VRB01KT 0100 R36/0400N FG VV002 02/02 Q1013 NOSIG
19:50
L
2 °C 200 m - 270° 270° 3 kt METAR LIML 071850Z 27003KT 0200 R36/0350N FG VV/// 02/02 Q1013 NOSIG
19:20
L
2 °C 200 m 200 ft 230° 230° 3 kt METAR LIML 071820Z 23003KT 0200 R36/0400N FG VV002 02/02 Q1013 NOSIG
18:50
L
2 °C 800 m - Var Var 2 kt METAR LIML 071750Z VRB02KT 0800 R36/1200U FG SCT003 02/02 Q1013 NOSIG
18:20
I
2 °C 2 km - 180° 180° 2 kt METAR LIML 071720Z 18002KT 2000 BCFG BR NSC 02/02 Q1013 NOSIG
17:50
I
2 °C 1,5 km - 180° 180° 3 kt METAR LIML 071650Z 18003KT 1500 0600S R36/0900U BCFG BR NSC 02/02 Q1012 NOSIG
17:20
I
3 °C 3,5 km - Var Var 2 kt METAR LIML 071620Z VRB02KT 3500 BR NSC 03/03 Q1012 BECMG 2000
16:50
I
3 °C 3,5 km - 170° 170° 2 kt METAR LIML 071550Z 17002KT 3500 BR NSC 03/03 Q1012 NOSIG
16:20
M
4 °C 5 km - 170° 170° 2 kt METAR LIML 071520Z 17002KT 5000 BR NSC 04/04 Q1012 NOSIG
15:50
M
4 °C 5 km - 190° 190° 3 kt METAR LIML 071450Z 19003KT 5000 BR NSC 04/04 Q1012 NOSIG
15:20
I
4 °C 4 km - Var Var 2 kt METAR LIML 071420Z VRB02KT 4000 BR NSC 04/04 Q1012 TEMPO 1200 BCFG
14:50
L
3 °C 700 m 300 ft 250° 250° 3 kt METAR LIML 071350Z 25003KT 210V290 0700 R36/1300U FG OVC003 03/03 Q1012 TEMPO 1200 BCFG
14:20
L
3 °C 700 m 300 ft 210° 210° 4 kt METAR LIML 071320Z 21004KT 160V240 0700 R36/1200N FG OVC003 03/03 Q1012 BECMG 1200 BCFG
13:50
L
3 °C 600 m 300 ft 240° 240° 4 kt METAR LIML 071250Z 24004KT 210V280 0600 R36/1100D FG OVC003 03/03 Q1013 BECMG 1200 BCFG
13:20
L
3 °C 500 m 200 ft Var Var 3 kt METAR LIML 071220Z VRB03KT 0500 R36/0700U FG OVC002 03/03 Q1013 BECMG 1200 BCFG
12:50
L
2 °C 200 m - 230° 230° 4 kt METAR LIML 071150Z 23004KT 200V260 0200 R36/0400N FG NSC 02/02 Q1013 BECMG 1200 BCFG
12:20
L
1 °C 200 m - 230° 230° 5 kt METAR LIML 071120Z 23005KT 0200 R36/0450N FG NSC 01/01 Q1014 NOSIG
11:50
L
1 °C 200 m - 240° 240° 5 kt METAR LIML 071050Z 24005KT 210V270 0200 R36/0400N FG NSC 01/01 Q1014 NOSIG
11:20
L
1 °C 100 m - 240° 240° 4 kt METAR LIML 071020Z 24004KT 0100 R36/0275N FG NSC 01/01 Q1014 NOSIG
10:50
L
1 °C 100 m - 240° 240° 3 kt METAR LIML 070950Z 24003KT 200V270 0100 R36/0400N FG NSC 01/01 Q1014 NOSIG
10:20
L
0 °C 200 m - 240° 240° 4 kt METAR LIML 070920Z 24004KT 0200 R36/0375N FG NSC 00/00 Q1014 NOSIG
09:50
L
0 °C 100 m - 260° 260° 3 kt METAR LIML 070850Z 26003KT 210V280 0100 R36/0375N FG NSC 00/00 Q1014 NOSIG
09:20
L
0 °C 100 m - 250° 250° 4 kt METAR LIML 070820Z 25004KT 0100 R36/0250N FZFG NSC M00/M00 Q1014 NOSIG
08:50
L
0 °C 100 m - 230° 230° 3 kt METAR LIML 070750Z 23003KT 200V260 0100 R36/0250N FG NSC 00/00 Q1014 NOSIG
08:20
L
-1 °C 100 m - Var Var 1 kt METAR LIML 070720Z VRB01KT 0100 R36/0650N FZFG NSC M01/M01 Q1014 NOSIG
07:50
L
-2 °C 300 m - 190° 190° 2 kt METAR LIML 070650Z 19002KT 0300 R36/0650D FZFG NSC M02/M02 Q1014 NOSIG
07:20
L
-2 °C 400 m - Var Var 1 kt METAR LIML 070620Z VRB01KT 0400 R36/1100U FZFG NSC M02/M02 Q1013 NOSIG
06:50
L
-1 °C 500 m - 260° 260° 3 kt METAR LIML 070550Z 26003KT 0500 R36/0800D FZFG NSC M01/M01 Q1013 NOSIG
06:20
L
-2 °C 800 m - Var Var 1 kt METAR LIML 070520Z VRB01KT 0800 R36/0550D FZFG NSC M02/M02 Q1013 NOSIG
05:50
L
-1 °C 500 m - 190° 190° 2 kt METAR LIML 070450Z 19002KT 0500 R36/0600D FZFG NSC M01/M01 Q1013 NOSIG
05:20
L
-1 °C 500 m - Var Var 1 kt METAR LIML 070420Z VRB01KT 0500 R36/0450D FZFG NSC M01/M01 Q1013 NOSIG
04:50
L
-2 °C 500 m - Var Var 1 kt METAR LIML 070350Z VRB01KT 0500 R36/0550U FZFG NSC M02/M02 Q1013 NOSIG
04:20
L
-2 °C 500 m - Var Var 1 kt METAR LIML 070320Z VRB01KT 0500 R36/0450N FZFG NSC M02/M02 Q1014 NOSIG
03:50
I
-1 °C 1,5 km - Var Var 1 kt METAR LIML 070250Z VRB01KT 1500 R36/1400U BCFG NSC M01/M01 Q1014 NOSIG
03:20
L
-1 °C 500 m - Var 000° 0 kt METAR LIML 070220Z 00000KT 0500 R36/0500N FZFG NSC M01/M01 Q1014 NOSIG
02:50
L
-1 °C 500 m - Var Var 2 kt METAR LIML 070150Z VRB02KT 0500 R36/0450D FZFG NSC M01/M01 Q1014 NOSIG
02:20
L
-2 °C 500 m - Var Var 1 kt METAR LIML 070120Z VRB01KT 0500 R36/0400D FZFG NSC M02/M02 Q1014 NOSIG
01:50
L
-1 °C 700 m - Var Var 1 kt METAR LIML 070050Z VRB01KT 0700 R36/0650N FZFG NSC M01/M01 Q1014 NOSIG
01:20
L
-1 °C 700 m - Var 000° 0 kt METAR LIML 070020Z 00000KT 0700 R36/0450D BCFG NSC M01/M01 Q1014 NOSIG
00:50
L
-1 °C 700 m - Var Var 1 kt METAR LIML 062350Z VRB01KT 0700 R36/0550N BCFG NSC M01/M01 Q1015 NOSIG
00:20
L
0 °C 700 m - Var Var 1 kt METAR LIML 062320Z VRB01KT 0700 R36/0550N BCFG NSC 00/00 Q1015 NOSIG

2022年12月6日

时间 代码 天气 温度 能见度 天花板 METAR/SPECI
23:50
L
0 °C 700 m - 010° 010° 2 kt METAR LIML 062250Z 01002KT 0700 R36/0500D BCFG NSC 00/00 Q1015 NOSIG
23:20
I
0 °C 1,8 km - Var Var 1 kt METAR LIML 062220Z VRB01KT 1800 R36/0600D BCFG NSC 00/00 Q1015 TEMPO 0500 FG
22:50
I
0 °C 1,8 km - 270° 270° 1 kt METAR LIML 062150Z 27001KT 1800 R36/0650N BCFG NSC 00/00 Q1015 TEMPO 0500 FG
22:20
L
0 °C 1,2 km - Var Var 1 kt METAR LIML 062120Z VRB01KT 1200 R36/0700N BCFG NSC 00/00 Q1015 TEMPO 0500 FG
21:50
L
1 °C 500 m - Var Var 1 kt METAR LIML 062050Z VRB01KT 0500 R36/0450N FG NSC 01/01 Q1015 BECMG 0200 FG
21:20
I
1 °C 1,6 km - Var Var 1 kt METAR LIML 062020Z VRB01KT 1600 R36/0600D BCFG NSC 01/01 Q1015 BECMG 0800 FG
20:50
I
1 °C 2 km - 030° 030° 3 kt METAR LIML 061950Z 03003KT 2000 R36/0400N BCFG NSC 01/01 Q1015 BECMG 0800 FG
20:20
I
2 °C 2 km - Var Var 1 kt METAR LIML 061920Z VRB01KT 2000 R36/0600U BCFG NSC 02/02 Q1015 BECMG 0800 FG
19:50
I
2 °C 3,5 km - Var Var 2 kt METAR LIML 061850Z VRB02KT 3500 R36/1400N BCFG NSC 02/02 Q1015 BECMG 0800 FG
19:20
M
3 °C 5 km - Var Var 1 kt METAR LIML 061820Z VRB01KT 5000 BCFG NSC 03/03 Q1015 BECMG 0800 FG
18:50
V
3 °C 10 km+ - Var Var 1 kt METAR LIML 061750Z VRB01KT 9999 MIFG NSC 03/03 Q1015 BECMG 3000 BCFG
18:20
V
4 °C 10 km+ - Var Var 1 kt METAR LIML 061720Z VRB01KT 9999 MIFG NSC 04/04 Q1015 BECMG 3000 BCFG
17:50
V
5 °C 10 km+ - Var Var 2 kt METAR LIML 061650Z VRB02KT 9999 MIFG NSC 05/04 Q1015 BECMG 3000 BCFG
17:20
V
5 °C 10 km+ - 150° 150° 3 kt METAR LIML 061620Z 15003KT 9999 MIFG NSC 05/05 Q1015 BECMG 3000 BCFG
16:50
V
6 °C 10 km+ - 120° 120° 2 kt METAR LIML 061550Z 12002KT CAVOK 06/04 Q1015 BECMG 3000 BCFG
16:20
V
7 °C 10 km+ - Var Var 2 kt METAR LIML 061520Z VRB02KT CAVOK 07/05 Q1015 NOSIG
15:50
V
8 °C 10 km+ - Var Var 1 kt METAR LIML 061450Z VRB01KT CAVOK 08/04 Q1015 NOSIG
15:20
V
8 °C 10 km+ - Var Var 1 kt METAR LIML 061420Z VRB01KT CAVOK 08/04 Q1015 NOSIG
14:50
V
8 °C 10 km+ - Var Var 1 kt METAR LIML 061350Z VRB01KT CAVOK 08/04 Q1015 NOSIG
14:20
V
7 °C 10 km+ - Var Var 1 kt METAR LIML 061320Z VRB01KT CAVOK 07/06 Q1015 NOSIG
13:50
V
6 °C 8 km - Var Var 2 kt METAR LIML 061250Z VRB02KT 8000 NSC 06/06 Q1015 NOSIG
13:20
I
4 °C 3,5 km - Var Var 2 kt METAR LIML 061220Z VRB02KT 3500 BCFG NSC 04/04 Q1016 NOSIG
12:50
I
4 °C 2 km - Var Var 3 kt METAR LIML 061150Z VRB03KT 2000 BCFG NSC 04/04 Q1016 NOSIG
12:20
I
4 °C 3 km - 190° 190° 3 kt METAR LIML 061120Z 19003KT 170V230 3000 1400S BCFG NSC 04/04 Q1016 NOSIG
11:50
L
3 °C 1,4 km - Var Var 2 kt METAR LIML 061050Z VRB02KT 1400 0700S R36/P2000N BCFG NSC 03/03 Q1016 BECMG 2000 BCFG
11:20
L
2 °C 400 m - 230° 230° 4 kt METAR LIML 061020Z 23004KT 0400 R36/0600D FG NSC 02/02 Q1017 NOSIG
10:50
L
1 °C 300 m - Var Var 2 kt METAR LIML 060950Z VRB02KT 0300 R36/0400N FG NSC 01/01 Q1017 NOSIG
10:20
L
1 °C 300 m - 250° 250° 3 kt METAR LIML 060920Z 25003KT 210V270 0300 R36/0650D FG NSC 01/01 Q1017 NOSIG
09:50
L
0 °C 300 m - 240° 240° 3 kt METAR LIML 060850Z 24003KT 210V280 0300 R36/0650N FG NSC 00/00 Q1017 NOSIG
09:20
L
0 °C 200 m - 240° 240° 3 kt METAR LIML 060820Z 24003KT 210V270 0200 R36/0500N FG NSC 00/00 Q1017 NOSIG
08:50
L
0 °C 300 m - Var Var 2 kt METAR LIML 060750Z VRB02KT 0300 R36/0650N FG NSC 00/00 Q1017 NOSIG
08:20
L
0 °C 400 m - Var Var 2 kt METAR LIML 060720Z VRB02KT 0400 0200S R36/0750N FG NSC 00/00 Q1017 NOSIG
07:50
L
0 °C 500 m - 250° 250° 3 kt METAR LIML 060650Z 25003KT 0500 0200S R36/1800D FG NSC 00/00 Q1017 NOSIG
07:20
V
1 °C 10 km+ - Var Var 2 kt METAR LIML 060620Z VRB02KT CAVOK 01/01 Q1016 NOSIG
06:50
V
0 °C 10 km+ - Var Var 2 kt METAR LIML 060550Z VRB02KT CAVOK 00/00 Q1016 NOSIG
06:20
V
1 °C 8 km - Var Var 2 kt METAR LIML 060520Z VRB02KT 8000 NSC 01/01 Q1016 NOSIG
05:50
V
1 °C 8 km - 260° 260° 3 kt METAR LIML 060450Z 26003KT 8000 NSC 01/01 Q1016 NOSIG
05:20
M
2 °C 5 km - 250° 250° 3 kt METAR LIML 060420Z 25003KT 5000 BR NSC 02/02 Q1016 NOSIG
04:50
I
0 °C 2,5 km - 210° 210° 3 kt METAR LIML 060350Z 21003KT 180V240 2500 R36/0600U BCFG SCT003 M00/M00 Q1016 NOSIG
04:20
I
0 °C 3 km - 170° 170° 1 kt METAR LIML 060320Z 17001KT 3000 R36/0650D BCFG SCT002 00/00 Q1017 NOSIG
03:50
L
1 °C 700 m 200 ft Var Var 2 kt METAR LIML 060250Z VRB02KT 0700 R36/0600U FG BKN002 01/01 Q1017 NOSIG
03:20
I
1 °C 2 km - Var Var 1 kt METAR LIML 060220Z VRB01KT 2000 R36/0750N BCFG SCT002 01/01 Q1017 NOSIG
02:50
I
1 °C 2 km - Var Var 2 kt METAR LIML 060150Z VRB02KT 2000 R36/0650N BCFG SCT002 01/01 Q1017 NOSIG
02:20
I
2 °C 1,5 km - Var Var 1 kt METAR LIML 060120Z VRB01KT 1500 R36/0450N BCFG NSC 02/02 Q1017 NOSIG
01:50
I
2 °C 1,5 km - Var Var 1 kt METAR LIML 060050Z VRB01KT 1500 R36/0500D BCFG NSC 02/02 Q1017 NOSIG
01:20
L
2 °C 1,2 km - 220° 220° 3 kt METAR LIML 060020Z 22003KT 1200 R36/0900U BCFG NSC 02/02 Q1017 NOSIG
00:50
L
3 °C 1,3 km - Var Var 1 kt METAR LIML 052350Z VRB01KT 1300 R36/1600D BCFG SCT003 03/03 Q1017 NOSIG
00:20
L
4 °C 1,3 km - Var Var 1 kt METAR LIML 052320Z VRB01KT 1300 R36/1100U BCFG SCT003 04/04 Q1017 NOSIG

2022年12月5日

时间 代码 天气 温度 能见度 天花板 METAR/SPECI
23:50
L
4 °C 500 m 200 ft 250° 250° 3 kt METAR LIML 052250Z 25003KT 0500 R36/0600N FG BKN002 04/04 Q1017 NOSIG
23:20
L
4 °C 700 m 200 ft 260° 260° 4 kt METAR LIML 052220Z 26004KT 0700 R36/0750N FG BKN002 04/04 Q1017 NOSIG
22:50
L
5 °C 1 km - 250° 250° 4 kt METAR LIML 052150Z 25004KT 1000 R36/0650N BCFG SCT002 05/05 Q1017 NOSIG
22:20
L
5 °C 200 m - Var Var 1 kt METAR LIML 052120Z VRB01KT 0200 R36/0375N FG SCT002 05/05 Q1017 BECMG 2500 BCFG
21:50
M
5 °C 5 km - 240° 240° 3 kt METAR LIML 052050Z 24003KT 5000 BCFG FEW005 SCT030 05/05 Q1018 NOSIG
21:20
V
6 °C 8 km - 260° 260° 2 kt METAR LIML 052020Z 26002KT 8000 BCFG FEW030 06/06 Q1017 NOSIG
20:50
V
6 °C 8 km - Var Var 2 kt METAR LIML 051950Z VRB02KT 8000 BCFG FEW030 06/06 Q1018 NOSIG
20:20
V
7 °C 10 km+ - 240° 240° 3 kt METAR LIML 051920Z 24003KT 9999 FEW030 07/07 Q1017 NOSIG
19:50
V
7 °C 10 km+ - Var Var 2 kt METAR LIML 051850Z VRB02KT 9999 SCT030 07/07 Q1017 NOSIG
19:20
V
7 °C 8 km - Var Var 2 kt METAR LIML 051820Z VRB02KT 8000 SCT015 07/07 Q1017 NOSIG
18:50
V
7 °C 8 km - 230° 230° 3 kt METAR LIML 051750Z 23003KT 8000 SCT015 07/07 Q1017 NOSIG
18:20
V
8 °C 8 km - Var Var 2 kt METAR LIML 051720Z VRB02KT 8000 FEW010 SCT035 08/08 Q1017 NOSIG
17:50
V
8 °C 10 km+ - 200° 200° 2 kt METAR LIML 051650Z 20002KT 9999 SCT035 08/08 Q1017 NOSIG
17:20
M
9 °C 10 km+ 2.000 ft 200° 200° 2 kt METAR LIML 051620Z 20002KT 9999 SCT010 BKN020 09/09 Q1017 NOSIG
16:50
M
9 °C 10 km+ 2.000 ft Var Var 2 kt METAR LIML 051550Z VRB02KT 9999 SCT010 BKN020 09/09 Q1017 NOSIG
16:20
M
9 °C 6 km 2.000 ft Var Var 2 kt METAR LIML 051520Z VRB02KT 6000 SCT010 BKN020 09/08 Q1017 NOSIG
15:50
M
9 °C 5 km 2.000 ft Var Var 1 kt METAR LIML 051450Z VRB01KT 5000 BR SCT007 OVC020 09/09 Q1017 NOSIG
15:20
M
9 °C 5 km 2.000 ft Var Var 1 kt METAR LIML 051420Z VRB01KT 5000 BR SCT007 OVC020 09/09 Q1017 NOSIG
14:50
I
9 °C 5 km 900 ft Var Var 1 kt METAR LIML 051350Z VRB01KT 5000 BR BKN009 09/09 Q1017 NOSIG
14:20
I
9 °C 5 km 700 ft Var Var 1 kt METAR LIML 051320Z VRB01KT 5000 BR BKN007 09/09 Q1017 NOSIG
13:50
I
9 °C 6 km 700 ft 310° 310° 2 kt METAR LIML 051250Z 31002KT 6000 BKN007 09/09 Q1017 NOSIG
13:20
I
9 °C 6 km 700 ft Var Var 2 kt METAR LIML 051220Z VRB02KT 6000 BKN007 09/09 Q1017 NOSIG
12:50
I
9 °C 5 km 700 ft Var Var 2 kt METAR LIML 051150Z VRB02KT 5000 BR BKN007 09/09 Q1017 NOSIG
12:20
I
9 °C 5 km 500 ft 160° 160° 5 kt METAR LIML 051120Z 16005KT 5000 BR BKN005 09/09 Q1017 NOSIG
11:50
I
8 °C 3,5 km 500 ft 190° 190° 4 kt METAR LIML 051050Z 19004KT 3500 BR BKN005 08/08 Q1018 NOSIG
11:20
I
8 °C 3,5 km - 180° 180° 4 kt METAR LIML 051020Z 18004KT 3500 BR SCT004 08/08 Q1018 NOSIG
10:50
L
8 °C 3 km 400 ft 160° 160° 4 kt METAR LIML 050950Z 16004KT 120V190 3000 BR BKN004 08/08 Q1018 NOSIG

我们和第三方通过cookies跟踪您在我们网站上的互联网行为。如果你继续,我们认为你同意我们的饼干政策